Time;durP1;ratioP1;P1;durP2;ratioP2;P2;SDS_P1;SDS_P2;PMS_P1;PMS_P2;Temp;Humidity;BMP_temperature;BMP_pressure;BME280_temperature;BME280_humidity;BME280_pressure;Samples;Min_cycle;Max_cycle;Signal;HPM_P1;HPM_P2
2022/11/16 00:00:17;;;;;;;;;;;230.90;2252.80;;;;;;5048838;28;20370;-84
2022/11/16 00:02:44;;;;;;;;;;;230.90;2252.80;;;;;;5042766;28;19916;-79
2022/11/16 00:05:10;;;;;;;;;;;230.90;2252.80;;;;;;5041716;28;19905;-84
2022/11/16 00:07:35;;;;;;;;;;;230.80;2252.80;;;;;;5034745;28;19911;-80
2022/11/16 00:10:01;;;;;;;;;;;230.90;2252.80;;;;;;5044958;28;19905;-80
2022/11/16 00:12:27;;;;;;;;;;;230.90;2252.80;;;;;;5051981;28;20354;-80
2022/11/16 00:14:52;;;;;;;;;;;231.00;2252.80;;;;;;5035970;28;19908;-79
2022/11/16 00:17:18;;;;;;;;;;;231.20;2252.80;;;;;;5034956;28;19950;-81
2022/11/16 00:19:43;;;;;;;;;;;231.10;2252.80;;;;;;5036057;28;19904;-81
2022/11/16 00:22:09;;;;;;;;;;;231.10;2252.80;;;;;;5047399;28;19935;-81
2022/11/16 00:24:35;;;;;;;;;;;231.10;2252.80;;;;;;5036425;28;20358;-83
2022/11/16 00:27:00;;;;;;;;;;;231.10;2252.80;;;;;;5046774;28;19912;-80
2022/11/16 00:29:26;;;;;;;;;;;231.10;2252.80;;;;;;5038535;28;20007;-79
2022/11/16 00:31:52;;;;;;;;;;;231.10;2252.80;;;;;;5053353;28;19913;-79
2022/11/16 00:34:18;;;;;;;;;;;231.10;2252.80;;;;;;5048723;28;20357;-80
2022/11/16 00:36:44;;;;;;;;;;;231.10;2252.80;;;;;;5034894;28;20067;-79
2022/11/16 00:39:13;;;;;;;;;;;231.00;2252.80;;;;;;5035831;28;20350;-82
2022/11/16 00:41:39;;;;;;;;;;;231.00;2252.80;;;;;;5038525;28;19958;-84
2022/11/16 00:44:05;;;;;;;;;;;231.00;2252.80;;;;;;5049494;28;19904;-79
2022/11/16 00:46:30;;;;;;;;;;;230.90;2252.80;;;;;;5043914;28;20410;-80
2022/11/16 00:48:56;;;;;;;;;;;230.90;2252.80;;;;;;5037987;28;20266;-79
2022/11/16 00:51:22;;;;;;;;;;;230.90;2252.80;;;;;;5038323;28;19904;-79
2022/11/16 00:53:47;;;;;;;;;;;231.00;2252.80;;;;;;5036889;28;19959;-79
2022/11/16 00:56:13;;;;;;;;;;;231.00;2252.80;;;;;;5055903;28;19916;-79
2022/11/16 00:58:38;;;;;;;;;;;231.00;2252.80;;;;;;5024331;28;19909;-79
2022/11/16 01:01:05;;;;;;;;;;;231.00;2252.80;;;;;;5038156;28;19920;-79
2022/11/16 01:03:30;;;;;;;;;;;231.00;2252.80;;;;;;5051688;28;20266;-79
2022/11/16 01:06:03;;;;;;;;;;;230.90;2252.80;;;;;;5024122;28;19911;-79
2022/11/16 01:08:29;;;;;;;;;;;230.90;2252.80;;;;;;5038648;28;19995;-79
2022/11/16 01:10:54;;;;;;;;;;;230.90;2252.80;;;;;;5038152;28;19990;-79
2022/11/16 01:13:20;;;;;;;;;;;230.90;2252.80;;;;;;5037999;28;19913;-80
2022/11/16 01:15:46;;;;;;;;;;;230.90;2252.80;;;;;;5038034;28;19913;-79
2022/11/16 01:18:12;;;;;;;;;;;230.90;2252.80;;;;;;5037549;28;19928;-79
2022/11/16 01:20:38;;;;;;;;;;;230.90;2252.80;;;;;;5041326;28;19908;-84
2022/11/16 01:23:04;;;;;;;;;;;230.90;2252.80;;;;;;5056611;28;19973;-79
2022/11/16 01:25:30;;;;;;;;;;;230.90;2252.80;;;;;;5055617;28;19905;-80
2022/11/16 01:27:55;;;;;;;;;;;230.90;2252.80;;;;;;5074560;28;19912;-78
2022/11/16 01:30:21;;;;;;;;;;;230.80;2252.80;;;;;;5056473;28;19970;-78
2022/11/16 01:32:46;;;;;;;;;;;230.80;2252.80;;;;;;5055998;28;19980;-77
2022/11/16 01:35:14;;;;;;;;;;;230.80;2252.80;;;;;;5073781;28;19915;-77
2022/11/16 01:37:40;;;;;;;;;;;230.80;2252.80;;;;;;5052956;28;19927;-77
2022/11/16 01:40:06;;;;;;;;;;;230.90;2252.80;;;;;;5055731;28;19905;-76
2022/11/16 01:42:32;;;;;;;;;;;230.80;2252.80;;;;;;5073401;28;19908;-77
2022/11/16 01:44:58;;;;;;;;;;;230.70;2252.80;;;;;;5055618;28;19950;-77
2022/11/16 01:47:23;;;;;;;;;;;230.70;2252.80;;;;;;5073458;28;19939;-78
2022/11/16 01:49:52;;;;;;;;;;;230.70;2252.80;;;;;;5055340;28;20270;-76
2022/11/16 01:52:21;;;;;;;;;;;230.80;2252.80;;;;;;5072646;28;19955;-76
2022/11/16 01:54:48;;;;;;;;;;;230.80;2252.80;;;;;;5055431;28;19958;-77
2022/11/16 01:57:16;;;;;;;;;;;230.80;2252.80;;;;;;5073458;28;19904;-82
2022/11/16 01:59:43;;;;;;;;;;;230.90;2252.80;;;;;;5049396;28;20362;-77
2022/11/16 02:02:08;;;;;;;;;;;230.90;2252.80;;;;;;5055385;28;19912;-77
2022/11/16 02:04:34;;;;;;;;;;;230.90;2252.80;;;;;;5054639;28;19910;-76
2022/11/16 02:07:12;;;;;;;;;;;230.90;2252.80;;;;;;5073179;28;19904;-77
2022/11/16 02:09:53;;;;;;;;;;;230.90;2252.80;;;;;;5055120;28;20895;-77
2022/11/16 02:12:48;;;;;;;;;;;230.90;2252.80;;;;;;5071412;28;19912;-77
2022/11/16 02:15:13;;;;;;;;;;;230.90;2252.80;;;;;;5035436;28;19909;-76
2022/11/16 02:17:39;;;;;;;;;;;230.90;2252.80;;;;;;5054394;28;19923;-77
2022/11/16 02:20:13;;;;;;;;;;;230.90;2252.80;;;;;;5072539;28;19955;-76
2022/11/16 02:22:39;;;;;;;;;;;230.90;2252.80;;;;;;5072984;28;20512;-79
2022/11/16 02:25:31;;;;;;;;;;;230.90;2252.80;;;;;;5054354;28;20449;-77
2022/11/16 02:28:02;;;;;;;;;;;230.80;2252.80;;;;;;5040366;28;19905;-76
2022/11/16 02:30:28;;;;;;;;;;;230.80;2252.80;;;;;;5068194;28;19914;-77
2022/11/16 02:33:07;;;;;;;;;;;230.70;2252.80;;;;;;5054532;28;20031;-77
2022/11/16 02:35:37;;;;;;;;;;;230.70;2252.80;;;;;;5052622;28;19915;-77
2022/11/16 02:38:06;;;;;;;;;;;230.70;2252.80;;;;;;5054268;28;19912;-76
2022/11/16 02:40:34;;;;;;;;;;;230.70;2252.80;;;;;;5054142;28;20397;-77
2022/11/16 02:43:06;;;;;;;;;;;230.70;2252.80;;;;;;5072694;28;19934;-77
2022/11/16 02:45:32;;;;;;;;;;;230.60;2252.80;;;;;;5072524;28;19962;-76
2022/11/16 02:48:07;;;;;;;;;;;230.60;2252.80;;;;;;5072395;28;19904;-77
2022/11/16 02:50:34;;;;;;;;;;;230.60;2252.80;;;;;;5054087;28;20041;-76
2022/11/16 02:52:59;;;;;;;;;;;230.60;2252.80;;;;;;5072393;28;19912;-77
2022/11/16 02:55:27;;;;;;;;;;;230.60;2252.80;;;;;;5050953;28;19905;-82
2022/11/16 02:58:00;;;;;;;;;;;230.50;2252.80;;;;;;5071968;28;19909;-78
2022/11/16 03:00:32;;;;;;;;;;;230.50;2252.80;;;;;;5048051;28;20007;-80
2022/11/16 03:03:03;;;;;;;;;;;230.50;2252.80;;;;;;5052077;28;20385;-77
2022/11/16 03:05:32;;;;;;;;;;;230.40;2252.80;;;;;;5047176;28;19999;-76
2022/11/16 03:08:00;;;;;;;;;;;230.40;2252.80;;;;;;5050726;28;19991;-76
2022/11/16 03:13:12;;;;;;;;;;;230.50;2252.80;;;;;;5047521;28;19967;-77
2022/11/16 03:15:40;;;;;;;;;;;230.50;2252.80;;;;;;5051900;28;19904;-76
2022/11/16 03:18:06;;;;;;;;;;;230.50;2252.80;;;;;;5051947;28;20369;-76
2022/11/16 03:20:33;;;;;;;;;;;230.50;2252.80;;;;;;5051675;28;19999;-76
2022/11/16 03:23:09;;;;;;;;;;;230.60;2252.80;;;;;;5050625;28;19905;-77
2022/11/16 03:25:40;;;;;;;;;;;230.50;2252.80;;;;;;5050094;28;19905;-77
2022/11/16 03:28:18;;;;;;;;;;;230.50;2252.80;;;;;;5050276;28;19966;-77
2022/11/16 03:31:07;;;;;;;;;;;230.40;2252.80;;;;;;5051811;28;19920;-77
2022/11/16 03:33:32;;;;;;;;;;;205.70;2252.80;;;;;;4961303;28;19918;-77
2022/11/16 03:35:58;;;;;;;;;;;205.70;2252.80;;;;;;4990504;28;20359;-76
2022/11/16 03:38:25;;;;;;;;;;;205.70;1894.40;;;;;;4990451;28;20604;-78
2022/11/16 03:40:50;;;;;;;;;;;205.70;1920.00;;;;;;4987838;28;19906;-76
2022/11/16 03:43:17;;;;;;;;;;;205.70;2073.60;;;;;;4990518;28;19906;-77
2022/11/16 03:45:44;;;;;;;;;;;230.40;2150.40;;;;;;4988127;28;19910;-76
2022/11/16 03:48:10;;;;;;;;;;;230.40;1971.20;;;;;;4990185;28;19906;-77
2022/11/16 03:50:36;;;;;;;;;;;230.40;2073.60;;;;;;4990351;28;19906;-77
2022/11/16 03:53:01;;;;;;;;;;;230.40;2073.60;;;;;;4974052;28;19914;-75
2022/11/16 03:55:27;;;;;;;;;;;230.40;1868.80;;;;;;4974276;28;19937;-76
2022/11/16 03:57:52;;;;;;;;;;;230.40;1945.60;;;;;;4974315;28;19948;-79
2022/11/16 04:00:18;;;;;;;;;;;230.40;1920.00;;;;;;4971069;28;19964;-79
2022/11/16 04:02:43;;;;;;;;;;;230.40;1971.20;;;;;;4954985;28;19917;-78
2022/11/16 04:24:27;;;;;;;;;;;205.70;2048.00;;;;;;5033833;28;19911;-79
2022/11/16 04:30:01;;;;;;;;;;;205.70;2022.40;;;;;;4983543;28;20502;-79
2022/11/16 04:37:56;;;;;;;;;;;205.70;2252.80;;;;;;4988453;28;19913;-78
2022/11/16 04:40:24;;;;;;;;;;;205.70;2252.80;;;;;;4979194;28;19961;-76
2022/11/16 04:42:53;;;;;;;;;;;230.40;2252.80;;;;;;4965779;28;19914;-76
2022/11/16 04:48:03;;;;;;;;;;;230.40;2252.80;;;;;;4987019;28;19941;-79
2022/11/16 04:50:29;;;;;;;;;;;230.40;2099.20;;;;;;4968521;28;19906;-79
2022/11/16 04:52:54;;;;;;;;;;;230.40;2176.00;;;;;;4968088;28;19921;-78
2022/11/16 04:55:20;;;;;;;;;;;230.40;1945.60;;;;;;4970000;28;20268;-79
2022/11/16 04:57:45;;;;;;;;;;;230.40;1868.80;;;;;;4990315;28;19909;-79
2022/11/16 05:00:11;;;;;;;;;;;230.50;2073.60;;;;;;5001161;28;19970;-79
2022/11/16 05:02:37;;;;;;;;;;;230.60;2252.80;;;;;;5051934;28;19955;-80
2022/11/16 05:05:02;;;;;;;;;;;230.50;2252.80;;;;;;5052391;28;19940;-79
2022/11/16 05:07:28;;;;;;;;;;;230.50;2252.80;;;;;;5054022;28;19911;-79
2022/11/16 05:09:53;;;;;;;;;;;230.50;2252.80;;;;;;5052954;28;19931;-79
2022/11/16 05:12:20;;;;;;;;;;;230.50;2252.80;;;;;;5053100;28;19905;-78
2022/11/16 05:14:46;;;;;;;;;;;230.40;2252.80;;;;;;5053166;28;19932;-80
2022/11/16 05:17:13;;;;;;;;;;;230.50;2252.80;;;;;;5053204;28;20457;-79
2022/11/16 05:22:22;;;;;;;;;;;230.40;2252.80;;;;;;5050736;28;19911;-79
2022/11/16 05:24:48;;;;;;;;;;;230.40;2252.80;;;;;;5052084;28;20238;-79
2022/11/16 05:27:15;;;;;;;;;;;230.40;2252.80;;;;;;5052627;28;19970;-80
2022/11/16 05:29:42;;;;;;;;;;;205.70;2252.80;;;;;;5052583;28;19917;-78
2022/11/16 05:32:09;;;;;;;;;;;205.70;2252.80;;;;;;5052769;28;19909;-78
2022/11/16 05:34:34;;;;;;;;;;;205.70;2252.80;;;;;;5052694;28;19928;-78
2022/11/16 05:37:00;;;;;;;;;;;205.70;2252.80;;;;;;5052615;28;19904;-79
2022/11/16 05:39:25;;;;;;;;;;;205.70;2252.80;;;;;;5054035;28;19905;-77
2022/11/16 05:41:51;;;;;;;;;;;230.40;2252.80;;;;;;5052534;28;20354;-79
2022/11/16 05:44:17;;;;;;;;;;;230.40;2252.80;;;;;;5051747;28;20247;-79
2022/11/16 05:46:43;;;;;;;;;;;230.40;2252.80;;;;;;5052534;28;19909;-79
2022/11/16 05:49:10;;;;;;;;;;;230.40;2252.80;;;;;;5054076;28;19905;-78
2022/11/16 05:51:37;;;;;;;;;;;230.40;2252.80;;;;;;5052346;28;20336;-78
2022/11/16 05:54:03;;;;;;;;;;;230.40;2252.80;;;;;;5052574;28;20004;-79
2022/11/16 05:56:29;;;;;;;;;;;230.40;2252.80;;;;;;5052580;28;19999;-80
2022/11/16 05:58:55;;;;;;;;;;;230.40;2252.80;;;;;;5052242;28;19909;-79
2022/11/16 06:01:21;;;;;;;;;;;205.70;2252.80;;;;;;5052238;28;19920;-77
2022/11/16 06:03:46;;;;;;;;;;;230.40;2252.80;;;;;;5052040;28;19909;-81
2022/11/16 06:06:12;;;;;;;;;;;205.70;2252.80;;;;;;5051662;28;20365;-79
2022/11/16 06:08:37;;;;;;;;;;;205.70;2252.80;;;;;;5051979;28;20329;-80
2022/11/16 06:11:04;;;;;;;;;;;205.70;2252.80;;;;;;5046395;28;19904;-79
2022/11/16 06:13:30;;;;;;;;;;;205.70;2252.80;;;;;;5032276;28;19913;-79
2022/11/16 06:15:55;;;;;;;;;;;205.70;2252.80;;;;;;5036758;28;19905;-79
2022/11/16 06:18:21;;;;;;;;;;;205.60;2252.80;;;;;;5041335;28;19912;-76
2022/11/16 06:20:47;;;;;;;;;;;205.60;2252.80;;;;;;5033752;28;20384;-78
2022/11/16 06:23:12;;;;;;;;;;;205.60;2252.80;;;;;;5032257;28;19905;-83
2022/11/16 06:25:38;;;;;;;;;;;205.60;1894.40;;;;;;5032363;28;20322;-76
2022/11/16 06:28:03;;;;;;;;;;;205.60;2048.00;;;;;;5042876;28;20290;-77
2022/11/16 06:30:29;;;;;;;;;;;205.70;2073.60;;;;;;5052487;28;19955;-76
2022/11/16 06:32:54;;;;;;;;;;;205.70;2252.80;;;;;;5051540;28;20307;-76
2022/11/16 06:35:20;;;;;;;;;;;205.70;1945.60;;;;;;5051735;28;19904;-75
2022/11/16 06:37:45;;;;;;;;;;;205.70;2252.80;;;;;;5033510;28;19960;-78
2022/11/16 06:40:11;;;;;;;;;;;205.70;2252.80;;;;;;5008879;28;19905;-81
2022/11/16 06:42:37;;;;;;;;;;;205.70;2252.80;;;;;;5046212;28;19904;-77
2022/11/16 06:45:02;;;;;;;;;;;205.70;2252.80;;;;;;5043182;28;20325;-80
2022/11/16 06:47:28;;;;;;;;;;;230.40;2252.80;;;;;;5052124;28;19912;-82
2022/11/16 06:49:53;;;;;;;;;;;230.50;2252.80;;;;;;5052921;28;20067;-80
2022/11/16 06:52:19;;;;;;;;;;;230.50;2252.80;;;;;;5051216;28;19905;-78
2022/11/16 06:54:44;;;;;;;;;;;230.60;2252.80;;;;;;5050502;28;20008;-79
2022/11/16 06:57:10;;;;;;;;;;;230.60;2252.80;;;;;;5051255;28;19905;-80
2022/11/16 06:59:36;;;;;;;;;;;230.70;2252.80;;;;;;5040683;28;19916;-80
2022/11/16 07:02:01;;;;;;;;;;;230.70;2252.80;;;;;;5045839;28;19920;-80
2022/11/16 07:04:27;;;;;;;;;;;230.80;2252.80;;;;;;5050537;28;20268;-79
2022/11/16 07:06:53;;;;;;;;;;;230.80;2252.80;;;;;;5051014;28;19971;-79
2022/11/16 07:09:18;;;;;;;;;;;230.80;2252.80;;;;;;5050496;28;19905;-81
2022/11/16 07:11:44;;;;;;;;;;;230.90;2252.80;;;;;;5019153;28;19912;-80
2022/11/16 07:14:10;;;;;;;;;;;230.80;2252.80;;;;;;5050856;28;19913;-77
2022/11/16 07:16:36;;;;;;;;;;;230.80;2252.80;;;;;;5052193;28;19911;-78
2022/11/16 07:19:02;;;;;;;;;;;230.80;2252.80;;;;;;5050676;28;19998;-78
2022/11/16 07:21:27;;;;;;;;;;;230.90;2252.80;;;;;;5050566;28;20370;-78
2022/11/16 07:23:53;;;;;;;;;;;230.90;2252.80;;;;;;5051882;28;19954;-77
2022/11/16 07:26:19;;;;;;;;;;;230.90;2252.80;;;;;;5050865;28;20007;-78
2022/11/16 07:28:44;;;;;;;;;;;231.00;2252.80;;;;;;5051689;28;19916;-78
2022/11/16 07:31:11;;;;;;;;;;;231.10;2252.80;;;;;;5052788;28;20002;-82
2022/11/16 07:33:37;;;;;;;;;;;231.00;2252.80;;;;;;5050713;28;20394;-79
2022/11/16 07:36:04;;;;;;;;;;;231.10;2252.80;;;;;;5052375;28;19963;-78
2022/11/16 07:38:30;;;;;;;;;;;231.20;2252.80;;;;;;5047646;28;19959;-79
2022/11/16 07:41:02;;;;;;;;;;;231.20;2252.80;;;;;;5050970;28;19904;-80
2022/11/16 07:43:30;;;;;;;;;;;231.20;2252.80;;;;;;5041900;28;20363;-82
2022/11/16 07:46:00;;;;;;;;;;;231.20;2252.80;;;;;;5044201;28;19909;-79
2022/11/16 07:48:26;;;;;;;;;;;231.30;2252.80;;;;;;5053132;28;19951;-82
2022/11/16 07:50:51;;;;;;;;;;;231.30;2252.80;;;;;;5056680;28;19909;-82
2022/11/16 07:53:17;;;;;;;;;;;231.30;2252.80;;;;;;5056311;28;19917;-82
2022/11/16 07:55:42;;;;;;;;;;;256.00;2252.80;;;;;;5035088;28;19940;-85
2022/11/16 07:58:08;;;;;;;;;;;256.10;2252.80;;;;;;5038644;28;20243;-85
2022/11/16 08:00:33;;;;;;;;;;;256.10;2252.80;;;;;;5045940;28;19917;-85
2022/11/16 08:02:59;;;;;;;;;;;256.10;2252.80;;;;;;5047546;28;19913;-86
2022/11/16 08:05:24;;;;;;;;;;;256.20;2252.80;;;;;;5033290;28;19911;-84
2022/11/16 08:07:50;;;;;;;;;;;256.20;2252.80;;;;;;5056408;28;19908;-85
2022/11/16 08:10:16;;;;;;;;;;;256.30;2252.80;;;;;;5056666;28;19909;-85
2022/11/16 08:12:41;;;;;;;;;;;256.30;2252.80;;;;;;5052390;28;20263;-85
2022/11/16 08:15:07;;;;;;;;;;;256.40;2252.80;;;;;;5035858;28;19971;-80
2022/11/16 08:17:33;;;;;;;;;;;256.50;2252.80;;;;;;5052479;28;19908;-85
2022/11/16 08:19:58;;;;;;;;;;;256.50;2252.80;;;;;;5055155;28;19912;-79
2022/11/16 08:22:24;;;;;;;;;;;256.60;2252.80;;;;;;5029732;28;19912;-81
2022/11/16 08:24:49;;;;;;;;;;;256.60;2252.80;;;;;;5027368;28;19905;-84
2022/11/16 08:27:16;;;;;;;;;;;256.70;2252.80;;;;;;5055416;28;20273;-81
2022/11/16 08:29:41;;;;;;;;;;;256.60;2252.80;;;;;;5037897;28;19909;-79
2022/11/16 08:32:07;;;;;;;;;;;256.70;2252.80;;;;;;5036263;28;19979;-84
2022/11/16 08:34:32;;;;;;;;;;;256.80;2252.80;;;;;;5050911;28;19917;-84
2022/11/16 08:36:58;;;;;;;;;;;256.80;2252.80;;;;;;5055162;28;19912;-81
2022/11/16 08:39:24;;;;;;;;;;;256.90;2252.80;;;;;;5043434;28;20277;-83
2022/11/16 08:41:49;;;;;;;;;;;256.90;2252.80;;;;;;5043696;28;19912;-85
2022/11/16 08:44:15;;;;;;;;;;;256.90;2252.80;;;;;;5028632;28;19912;-83
2022/11/16 08:46:41;;;;;;;;;;;256.90;2252.80;;;;;;5038295;28;20050;-83
2022/11/16 08:49:06;;;;;;;;;;;281.60;2278.40;;;;;;5022536;28;19916;-80
2022/11/16 08:51:32;;;;;;;;;;;281.60;2278.40;;;;;;5048372;28;19984;-80
2022/11/16 08:53:58;;;;;;;;;;;281.70;2278.40;;;;;;5040864;28;19924;-85
2022/11/16 08:56:28;;;;;;;;;;;281.80;2278.40;;;;;;5043781;28;19909;-84
2022/11/16 08:58:54;;;;;;;;;;;281.70;2278.40;;;;;;5052853;28;19908;-86
2022/11/16 09:01:21;;;;;;;;;;;281.80;2278.40;;;;;;5054817;28;20355;-81
2022/11/16 09:03:47;;;;;;;;;;;282.00;2278.40;;;;;;5038329;28;19951;-82
2022/11/16 09:06:13;;;;;;;;;;;282.10;2278.40;;;;;;5043208;28;19908;-83
2022/11/16 09:08:39;;;;;;;;;;;282.10;2278.40;;;;;;5054472;28;19909;-83
2022/11/16 09:11:06;;;;;;;;;;;282.10;2278.40;;;;;;5042020;28;19905;-81
2022/11/16 09:13:31;;;;;;;;;;;282.20;2278.40;;;;;;5015119;28;19921;-82
2022/11/16 09:15:58;;;;;;;;;;;282.20;2278.40;;;;;;5040754;28;19906;-84
2022/11/16 09:18:23;;;;;;;;;;;282.30;2278.40;;;;;;5025381;28;19915;-83
2022/11/16 09:20:49;;;;;;;;;;;282.40;2278.40;;;;;;5054141;28;19987;-80
2022/11/16 09:23:15;;;;;;;;;;;282.50;2278.40;;;;;;5037775;28;19952;-80
2022/11/16 09:25:43;;;;;;;;;;;282.50;2278.40;;;;;;5042780;28;19960;-81
2022/11/16 09:28:10;;;;;;;;;;;307.20;2304.00;;;;;;5040710;28;19909;-80
2022/11/16 09:30:35;;;;;;;;;;;307.30;2304.00;;;;;;5053953;28;19909;-82
2022/11/16 09:33:01;;;;;;;;;;;307.30;2304.00;;;;;;5053652;28;19979;-84
2022/11/16 09:35:26;;;;;;;;;;;307.30;2304.00;;;;;;5053833;28;19911;-86
2022/11/16 09:37:52;;;;;;;;;;;307.40;2304.00;;;;;;5053119;28;19913;-80
2022/11/16 09:40:18;;;;;;;;;;;307.40;2304.00;;;;;;5047736;28;19911;-80
2022/11/16 09:42:49;;;;;;;;;;;307.50;2304.00;;;;;;5052743;28;20318;-77
2022/11/16 09:45:38;;;;;;;;;;;307.60;2304.00;;;;;;5053129;28;20362;-85
2022/11/16 09:48:04;;;;;;;;;;;307.60;2304.00;;;;;;5043746;28;19908;-87
2022/11/16 09:50:33;;;;;;;;;;;307.70;2304.00;;;;;;5054112;28;20354;-90
2022/11/16 09:53:05;;;;;;;;;;;307.70;2304.00;;;;;;5053771;28;19999;-81
2022/11/16 09:55:41;;;;;;;;;;;307.80;2304.00;;;;;;5054259;28;20092;-86
2022/11/16 09:58:10;;;;;;;;;;;307.90;2304.00;;;;;;5053567;28;19905;-83
2022/11/16 10:00:40;;;;;;;;;;;308.00;2304.00;;;;;;5042921;28;19943;-84
2022/11/16 10:03:09;;;;;;;;;;;308.00;2304.00;;;;;;5014646;28;19917;-83
2022/11/16 10:05:56;;;;;;;;;;;308.10;2304.00;;;;;;5018912;28;19906;-80
2022/11/16 10:08:24;;;;;;;;;;;332.90;2329.60;;;;;;5016062;28;19913;-82
2022/11/16 10:11:10;;;;;;;;;;;333.00;2329.60;;;;;;5022182;28;20000;-84
2022/11/16 10:13:50;;;;;;;;;;;333.10;2329.60;;;;;;5022422;28;19913;-80
2022/11/16 10:16:36;;;;;;;;;;;333.20;2329.60;;;;;;5019551;28;19906;-79
2022/11/16 10:19:01;;;;;;;;;;;333.40;2329.60;;;;;;5015916;28;20004;-80
2022/11/16 10:21:33;;;;;;;;;;;333.40;2329.60;;;;;;5005768;28;19932;-79
2022/11/16 10:24:08;;;;;;;;;;;333.50;2329.60;;;;;;5024186;28;19905;-84
2022/11/16 10:26:36;;;;;;;;;;;333.70;2329.60;;;;;;5016055;28;19921;-81
2022/11/16 10:29:03;;;;;;;;;;;358.40;2329.60;;;;;;5007263;28;19912;-81
2022/11/16 10:31:50;;;;;;;;;;;358.50;2329.60;;;;;;5017664;28;20247;-87
2022/11/16 10:34:23;;;;;;;;;;;358.50;2329.60;;;;;;5019610;28;19948;-81
2022/11/16 10:36:49;;;;;;;;;;;358.50;2329.60;;;;;;5022265;28;19905;-81
2022/11/16 10:39:16;;;;;;;;;;;358.60;2329.60;;;;;;5015848;28;20275;-81
2022/11/16 10:41:44;;;;;;;;;;;358.70;2329.60;;;;;;5030312;28;19955;-86
2022/11/16 10:44:13;;;;;;;;;;;358.70;2329.60;;;;;;5026324;28;19909;-81
2022/11/16 10:46:43;;;;;;;;;;;358.90;2329.60;;;;;;5022253;28;19905;-86
2022/11/16 10:49:10;;;;;;;;;;;359.30;2329.60;;;;;;5024493;28;19955;-83
2022/11/16 10:51:36;;;;;;;;;;;384.30;2329.60;;;;;;5034424;28;19905;-81
2022/11/16 10:54:10;;;;;;;;;;;384.40;2329.60;;;;;;5032459;28;19919;-84
2022/11/16 10:56:38;;;;;;;;;;;384.70;2329.60;;;;;;5033026;28;20010;-83
2022/11/16 10:59:08;;;;;;;;;;;384.90;2329.60;;;;;;5028985;28;20358;-85
2022/11/16 11:01:39;;;;;;;;;;;384.90;2329.60;;;;;;5016049;28;20027;-84
2022/11/16 11:04:21;;;;;;;;;;;409.70;2355.20;;;;;;5041049;28;19968;-81
2022/11/16 11:06:47;;;;;;;;;;;;;;;;;;5035893;28;20598;-82
2022/11/16 11:09:14;;;;;;;;;;;410.20;2355.20;;;;;;5041079;28;19905;-81
2022/11/16 11:14:23;;;;;;;;;;;435.40;2355.20;;;;;;5033428;28;20055;-80
2022/11/16 11:16:49;;;;;;;;;;;;;;;;;;5046447;28;19966;-81
2022/11/16 11:19:15;;;;;;;;;;;;;;;;;;5040170;28;19909;-84
2022/11/16 11:21:41;;;;;;;;;;;435.70;2355.20;;;;;;5038632;28;20267;-82
2022/11/16 11:24:13;;;;;;;;;;;435.70;2355.20;;;;;;5036709;28;19905;-84
2022/11/16 11:26:40;;;;;;;;;;;435.70;2355.20;;;;;;5029003;28;20316;-86
2022/11/16 11:29:17;;;;;;;;;;;435.70;2355.20;;;;;;5017981;28;19910;-86
2022/11/16 11:31:48;;;;;;;;;;;435.70;2355.20;;;;;;5014162;28;20367;-88
2022/11/16 11:34:14;;;;;;;;;;;435.90;2355.20;;;;;;5022730;28;19924;-84
2022/11/16 11:36:46;;;;;;;;;;;435.80;2355.20;;;;;;5052406;28;19912;-82
2022/11/16 11:39:11;;;;;;;;;;;435.70;2355.20;;;;;;5053499;28;20374;-84
2022/11/16 11:41:42;;;;;;;;;;;435.20;2355.20;;;;;;5053070;28;19905;-84
2022/11/16 11:44:18;;;;;;;;;;;410.50;2355.20;;;;;;5052312;28;19975;-81
2022/11/16 11:46:49;;;;;;;;;;;410.30;2355.20;;;;;;5039075;28;19916;-83
2022/11/16 11:49:20;;;;;;;;;;;410.20;2355.20;;;;;;5033592;28;19953;-84
2022/11/16 11:51:48;;;;;;;;;;;410.00;2355.20;;;;;;5030983;28;19905;-82
2022/11/16 11:54:20;;;;;;;;;;;410.00;2355.20;;;;;;5046504;28;19967;-82
2022/11/16 11:56:46;;;;;;;;;;;410.00;2355.20;;;;;;5047142;28;19909;-84
2022/11/16 11:59:17;;;;;;;;;;;410.00;2355.20;;;;;;5029813;28;20363;-84
2022/11/16 12:01:55;;;;;;;;;;;410.00;2355.20;;;;;;5035585;28;19920;-80
2022/11/16 12:04:23;;;;;;;;;;;410.00;2355.20;;;;;;5055568;28;19913;-82
2022/11/16 12:06:49;;;;;;;;;;;410.00;2355.20;;;;;;5041475;28;19911;-81
2022/11/16 12:09:33;;;;;;;;;;;409.90;2355.20;;;;;;5055436;28;19908;-80
2022/11/16 12:12:18;;;;;;;;;;;409.80;2355.20;;;;;;5051344;28;19904;-81
2022/11/16 12:14:48;;;;;;;;;;;409.80;2355.20;;;;;;5034582;28;19917;-82
2022/11/16 12:17:26;;;;;;;;;;;409.80;2355.20;;;;;;5035509;28;20332;-81
2022/11/16 12:20:14;;;;;;;;;;;409.80;2355.20;;;;;;5023839;28;19928;-83
2022/11/16 12:22:54;;;;;;;;;;;409.80;2355.20;;;;;;5030556;28;19904;-83
2022/11/16 12:25:19;;;;;;;;;;;409.80;2355.20;;;;;;5052743;28;19905;-83
2022/11/16 12:27:51;;;;;;;;;;;409.80;2355.20;;;;;;5024340;28;20004;-82
2022/11/16 12:30:18;;;;;;;;;;;409.80;2355.20;;;;;;5050060;28;19930;-82
2022/11/16 12:33:03;;;;;;;;;;;409.80;2355.20;;;;;;5034391;28;20018;-84
2022/11/16 12:35:47;;;;;;;;;;;409.80;2355.20;;;;;;5038249;28;19908;-82
2022/11/16 12:38:27;;;;;;;;;;;409.90;2355.20;;;;;;5059159;28;19905;-85
2022/11/16 12:41:11;;;;;;;;;;;409.90;2355.20;;;;;;5058900;28;20354;-82
2022/11/16 12:43:45;;;;;;;;;;;409.90;2355.20;;;;;;5046627;28;19905;-83
2022/11/16 12:46:13;;;;;;;;;;;409.90;2355.20;;;;;;5056047;28;19905;-83
2022/11/16 12:48:39;;;;;;;;;;;409.90;2355.20;;;;;;5057931;28;19931;-84
2022/11/16 12:51:07;;;;;;;;;;;409.90;2355.20;;;;;;5058448;28;19912;-84
2022/11/16 12:53:45;;;;;;;;;;;409.90;2355.20;;;;;;5056627;28;19912;-82
2022/11/16 12:56:29;;;;;;;;;;;410.00;2355.20;;;;;;5040815;28;19909;-82
2022/11/16 12:59:21;;;;;;;;;;;410.00;2355.20;;;;;;5044100;28;19904;-83
2022/11/16 13:02:02;;;;;;;;;;;410.00;2355.20;;;;;;5068266;28;19921;-84
2022/11/16 13:04:28;;;;;;;;;;;410.00;2355.20;;;;;;5035720;28;19912;-83
2022/11/16 13:06:57;;;;;;;;;;;410.00;2355.20;;;;;;5075580;28;19908;-82
2022/11/16 13:09:25;;;;;;;;;;;410.00;2355.20;;;;;;5075218;28;19905;-83
2022/11/16 13:11:56;;;;;;;;;;;410.00;2355.20;;;;;;5070797;28;19966;-81
2022/11/16 13:14:28;;;;;;;;;;;410.10;2355.20;;;;;;5048613;28;19912;-83
2022/11/16 13:16:54;;;;;;;;;;;410.10;2355.20;;;;;;5064583;28;19908;-83
2022/11/16 13:19:20;;;;;;;;;;;410.10;2355.20;;;;;;5054460;28;19904;-84
2022/11/16 13:21:54;;;;;;;;;;;410.20;2355.20;;;;;;5057526;28;20426;-83
2022/11/16 13:24:38;;;;;;;;;;;410.20;2355.20;;;;;;5058007;28;19973;-83
2022/11/16 13:27:27;;;;;;;;;;;410.20;2355.20;;;;;;5057784;28;19908;-84
2022/11/16 13:30:05;;;;;;;;;;;410.20;2355.20;;;;;;5044692;28;19916;-83
2022/11/16 13:32:31;;;;;;;;;;;410.20;2355.20;;;;;;5076031;28;19909;-82
2022/11/16 13:34:57;;;;;;;;;;;410.20;2355.20;;;;;;5051265;28;19920;-84
2022/11/16 13:37:38;;;;;;;;;;;410.20;2355.20;;;;;;5037325;28;19911;-83
2022/11/16 13:40:03;;;;;;;;;;;410.20;2355.20;;;;;;5075941;28;19908;-84
2022/11/16 13:42:30;;;;;;;;;;;410.20;2355.20;;;;;;5048260;28;20466;-82
2022/11/16 13:45:15;;;;;;;;;;;410.20;2355.20;;;;;;5053085;28;19905;-83
2022/11/16 13:47:47;;;;;;;;;;;410.00;2355.20;;;;;;5037171;28;19916;-83
2022/11/16 13:50:18;;;;;;;;;;;410.00;2355.20;;;;;;5053813;28;19991;-84
2022/11/16 13:52:44;;;;;;;;;;;410.00;2355.20;;;;;;5023192;28;19909;-83
2022/11/16 13:55:30;;;;;;;;;;;409.90;2355.20;;;;;;5033819;28;20413;-83
2022/11/16 13:57:58;;;;;;;;;;;409.90;2355.20;;;;;;5041254;28;19905;-83
2022/11/16 14:00:27;;;;;;;;;;;409.90;2355.20;;;;;;5045665;28;19945;-84
2022/11/16 14:03:11;;;;;;;;;;;409.80;2355.20;;;;;;5033651;28;19914;-82
2022/11/16 14:05:38;;;;;;;;;;;409.80;2355.20;;;;;;5044456;28;19991;-82
2022/11/16 14:08:19;;;;;;;;;;;409.80;2355.20;;;;;;5056003;28;19954;-82
2022/11/16 14:10:51;;;;;;;;;;;409.80;2355.20;;;;;;5036982;28;19983;-82
2022/11/16 14:13:29;;;;;;;;;;;409.70;2355.20;;;;;;5038382;28;19920;-82
2022/11/16 14:16:13;;;;;;;;;;;409.70;2355.20;;;;;;5048653;28;19908;-81
2022/11/16 14:18:38;;;;;;;;;;;409.70;2355.20;;;;;;5056660;28;19905;-84
2022/11/16 14:21:10;;;;;;;;;;;409.70;2355.20;;;;;;5055712;28;19909;-84
2022/11/16 14:23:47;;;;;;;;;;;409.70;2355.20;;;;;;5073876;28;19904;-84
2022/11/16 14:26:12;;;;;;;;;;;409.60;2355.20;;;;;;5055653;28;19904;-83
2022/11/16 14:28:52;;;;;;;;;;;409.60;2355.20;;;;;;5055972;28;19915;-81